createdAt,value
2019-05-20T00:00:14.486Z,100750.59
2019-05-20T00:02:48.838Z,100753.31
2019-05-20T00:05:20.893Z,100750.73
2019-05-20T00:07:52.413Z,100753.23
2019-05-20T00:10:24.718Z,100763.61
2019-05-20T00:12:56.969Z,100757.22
2019-05-20T00:15:29.176Z,100755.52
2019-05-20T00:18:01.373Z,100759.64
2019-05-20T00:20:34.084Z,100756.45
2019-05-20T00:23:05.512Z,100755.02
2019-05-20T00:25:37.639Z,100758.20
2019-05-20T00:28:09.660Z,100761.76
2019-05-20T00:30:41.087Z,100759.85
2019-05-20T00:33:14.067Z,100761.93
2019-05-20T00:35:45.478Z,100766.43
2019-05-20T00:38:17.349Z,100766.38
2019-05-20T00:40:48.630Z,100769.63
2019-05-20T00:43:20.212Z,100766.51
2019-05-20T00:45:52.414Z,100770.88
2019-05-20T00:48:23.799Z,100777.08
2019-05-20T00:50:56.029Z,100778.32
2019-05-20T00:53:28.069Z,100774.30
2019-05-20T00:55:59.367Z,100778.57
2019-05-20T00:58:31.477Z,100773.25
2019-05-20T01:01:02.923Z,100776.73
2019-05-20T01:03:36.008Z,100776.86
2019-05-20T01:06:27.544Z,100785.09
2019-05-20T01:08:59.371Z,100783.89
2019-05-20T01:11:57.910Z,100788.08
2019-05-20T01:14:51.707Z,100793.91
2019-05-20T01:17:23.384Z,100799.23
2019-05-20T01:19:54.487Z,100797.64
2019-05-20T01:22:26.447Z,100796.27
2019-05-20T01:24:58.205Z,100794.47
2019-05-20T01:27:29.592Z,100796.17
2019-05-20T01:30:04.814Z,100796.97
2019-05-20T01:32:36.567Z,100795.80
2019-05-20T01:35:08.240Z,100797.71
2019-05-20T01:37:40.042Z,100797.64
2019-05-20T01:40:11.961Z,100800.25
2019-05-20T01:42:43.563Z,100800.82
2019-05-20T01:45:15.091Z,100800.55
2019-05-20T01:47:46.861Z,100802.33
2019-05-20T01:50:19.330Z,100797.71
2019-05-20T01:52:50.664Z,100811.46
2019-05-20T01:55:21.998Z,100800.63
2019-05-20T01:57:53.200Z,100802.45
2019-05-20T02:00:24.505Z,100805.87
2019-05-20T02:02:55.847Z,100804.73
2019-05-20T02:05:28.618Z,100804.41
2019-05-20T02:08:00.209Z,100803.92
2019-05-20T02:10:32.277Z,100803.60
2019-05-20T02:13:03.741Z,100811.52
2019-05-20T02:15:49.126Z,100817.06
2019-05-20T02:18:20.480Z,100824.30
2019-05-20T02:20:51.892Z,100823.31
2019-05-20T02:23:23.200Z,100831.50
2019-05-20T02:25:54.489Z,100828.81
2019-05-20T02:28:25.827Z,100827.00
2019-05-20T02:30:57.292Z,100827.40
2019-05-20T02:33:28.931Z,100838.50
2019-05-20T02:36:00.694Z,100841.53
2019-05-20T02:38:33.925Z,100841.41
2019-05-20T02:41:05.979Z,100837.23
2019-05-20T02:43:37.681Z,100841.20
2019-05-20T02:46:09.974Z,100842.33
2019-05-20T02:48:41.643Z,100836.50
2019-05-20T02:51:12.880Z,100831.52
2019-05-20T02:57:01.229Z,100848.17
2019-05-20T02:59:58.831Z,100846.70
2019-05-20T03:05:36.753Z,100834.51
2019-05-20T03:08:08.962Z,100839.72
2019-05-20T03:10:41.467Z,100827.58
2019-05-20T03:13:14.096Z,100833.12
2019-05-20T03:15:46.622Z,100837.46
2019-05-20T03:18:20.559Z,100830.75
2019-05-20T03:20:52.835Z,100827.36
2019-05-20T03:23:24.330Z,100831.55
2019-05-20T03:25:55.431Z,100843.79
2019-05-20T03:28:26.806Z,100841.55
2019-05-20T03:30:58.808Z,100842.05
2019-05-20T03:33:30.901Z,100840.91
2019-05-20T03:36:02.502Z,100846.86
2019-05-20T03:38:33.907Z,100855.07
2019-05-20T03:41:05.692Z,100852.29
2019-05-20T03:43:37.186Z,100862.81
2019-05-20T03:46:09.050Z,100864.83
2019-05-20T03:48:41.328Z,100854.70
2019-05-20T03:51:13.695Z,100854.70
2019-05-20T03:53:45.676Z,100846.30
2019-05-20T03:56:18.367Z,100853.13
2019-05-20T03:58:49.619Z,100863.09
2019-05-20T04:01:20.767Z,100875.05
2019-05-20T04:03:52.058Z,100890.76
2019-05-20T04:06:23.583Z,100886.27
2019-05-20T04:08:55.011Z,100873.78
2019-05-20T04:11:26.360Z,100869.42
2019-05-20T04:13:57.729Z,100866.00
2019-05-20T04:16:29.138Z,100870.72
2019-05-20T04:19:00.358Z,100881.67
2019-05-20T04:21:32.932Z,100899.07
2019-05-20T04:24:05.970Z,100896.94
2019-05-20T04:26:37.770Z,100902.52
2019-05-20T04:29:10.244Z,100892.77
2019-05-20T04:31:41.652Z,100891.65
2019-05-20T04:34:12.899Z,100904.84
2019-05-20T04:36:44.353Z,100901.06
2019-05-20T04:39:16.264Z,100902.11
2019-05-20T04:41:49.236Z,100904.58
2019-05-20T04:44:21.648Z,100908.95
2019-05-20T04:46:52.951Z,100912.24
2019-05-20T04:49:24.292Z,100910.32
2019-05-20T04:51:55.586Z,100914.91
2019-05-20T04:54:27.334Z,100919.88
2019-05-20T04:56:58.666Z,100917.77
2019-05-20T04:59:29.900Z,100916.00
2019-05-20T05:02:01.284Z,100924.47
2019-05-20T05:04:32.594Z,100926.59
2019-05-20T05:07:04.034Z,100927.32
2019-05-20T05:09:35.490Z,100932.84
2019-05-20T05:12:06.945Z,100937.69
2019-05-20T05:14:38.435Z,100936.08
2019-05-20T05:17:09.815Z,100933.54
2019-05-20T05:19:41.275Z,100928.25
2019-05-20T05:22:12.609Z,100944.24
2019-05-20T05:24:44.083Z,100933.02
2019-05-20T05:27:15.583Z,100927.50
2019-05-20T05:29:46.888Z,100943.34
2019-05-20T05:32:19.910Z,100932.48
2019-05-20T05:34:51.304Z,100934.20
2019-05-20T05:37:22.665Z,100948.64
2019-05-20T05:39:53.967Z,100948.22
2019-05-20T05:42:25.469Z,100947.60
2019-05-20T05:44:56.857Z,100943.72
2019-05-20T05:47:28.126Z,100940.18
2019-05-20T05:49:59.555Z,100942.73
2019-05-20T05:52:30.960Z,100950.63
2019-05-20T05:55:02.207Z,100954.77
2019-05-20T05:57:33.533Z,100954.84
2019-05-20T06:00:10.173Z,100949.98
2019-05-20T06:02:41.590Z,100951.91
2019-05-20T06:05:14.424Z,100957.69
2019-05-20T06:07:45.791Z,100958.27
2019-05-20T06:10:17.234Z,100962.53
2019-05-20T06:12:48.712Z,100962.55
2019-05-20T06:15:20.851Z,100961.22
2019-05-20T06:17:52.233Z,100961.44
2019-05-20T06:20:23.929Z,100970.06
2019-05-20T06:22:55.360Z,100974.49
2019-05-20T06:25:26.782Z,100971.02
2019-05-20T06:27:58.078Z,100972.86
2019-05-20T06:30:38.573Z,100978.89
2019-05-20T06:33:10.014Z,100978.73
2019-05-20T06:35:41.688Z,100981.55
2019-05-20T06:38:17.741Z,100979.14
2019-05-20T06:40:49.117Z,100981.30
2019-05-20T06:43:20.379Z,100991.45
2019-05-20T06:45:51.617Z,101002.47
2019-05-20T06:48:23.535Z,100999.18
2019-05-20T06:50:55.237Z,100991.75
2019-05-20T06:53:27.010Z,100992.27
2019-05-20T06:55:58.439Z,100984.14
2019-05-20T06:58:29.791Z,100993.13
2019-05-20T07:01:01.099Z,100990.93
2019-05-20T07:03:32.989Z,100980.53
2019-05-20T07:06:05.452Z,100988.15
2019-05-20T07:08:36.794Z,100997.31
2019-05-20T07:11:08.019Z,100987.32
2019-05-20T07:13:39.279Z,100998.80
2019-05-20T07:16:10.566Z,100988.41
2019-05-20T07:18:41.833Z,100994.20
2019-05-20T07:21:13.062Z,100987.27
2019-05-20T07:23:44.773Z,100985.99
2019-05-20T07:26:16.146Z,100998.89
2019-05-20T07:28:47.806Z,100999.73
2019-05-20T07:31:19.110Z,100996.75
2019-05-20T07:33:50.498Z,101000.47
2019-05-20T07:36:21.701Z,101007.42
2019-05-20T07:38:52.990Z,101001.56
2019-05-20T07:41:24.564Z,101001.84
2019-05-20T07:43:56.933Z,100997.22
2019-05-20T07:46:28.371Z,100990.77
2019-05-20T07:49:00.248Z,100993.86
2019-05-20T07:51:32.686Z,100990.56
2019-05-20T07:54:04.697Z,100985.22
2019-05-20T07:56:39.139Z,100989.27
2019-05-20T07:59:13.198Z,100982.35
2019-05-20T08:01:44.492Z,100965.48
2019-05-20T08:04:15.965Z,100965.95
2019-05-20T08:06:47.421Z,100980.28
2019-05-20T08:09:18.712Z,100961.38
2019-05-20T08:11:49.911Z,100963.89
2019-05-20T08:14:21.345Z,100969.13
2019-05-20T08:16:52.787Z,100972.01
2019-05-20T08:19:24.314Z,100977.50
2019-05-20T08:21:55.649Z,100949.84
2019-05-20T08:24:27.221Z,100951.48
2019-05-20T08:26:58.463Z,100947.06
2019-05-20T08:29:29.788Z,100943.55
2019-05-20T08:32:01.377Z,100945.61
2019-05-20T08:34:33.319Z,100944.95
2019-05-20T08:37:04.883Z,100947.31
2019-05-20T08:39:36.221Z,100938.73
2019-05-20T08:42:07.531Z,100946.08
2019-05-20T08:44:38.828Z,100947.78
2019-05-20T08:47:10.039Z,100939.87
2019-05-20T08:49:41.433Z,100946.61
2019-05-20T08:52:13.062Z,100946.91
2019-05-20T08:54:44.660Z,100938.41
2019-05-20T08:57:15.991Z,100942.69
2019-05-20T08:59:47.287Z,100916.45
2019-05-20T09:02:18.698Z,100920.66
2019-05-20T09:04:50.126Z,100946.08
2019-05-20T09:07:21.395Z,100925.88
2019-05-20T09:09:52.826Z,100925.66
2019-05-20T09:12:24.123Z,100924.81
2019-05-20T09:14:55.472Z,100915.70
2019-05-20T09:17:26.960Z,100916.48
2019-05-20T09:19:58.148Z,100913.73
2019-05-20T09:22:29.486Z,100923.23
2019-05-20T09:25:01.456Z,100916.76
2019-05-20T09:27:33.365Z,100907.69
2019-05-20T09:30:07.170Z,100899.78
2019-05-20T09:32:42.794Z,100914.25
2019-05-20T09:35:13.082Z,100915.56
2019-05-20T09:37:44.548Z,100887.98
2019-05-20T09:40:19.995Z,100880.84
2019-05-20T09:42:51.395Z,100916.51
2019-05-20T09:45:22.750Z,100914.13
2019-05-20T09:47:53.904Z,100912.72
2019-05-20T09:50:25.199Z,100912.05
2019-05-20T09:52:56.518Z,100914.94
2019-05-20T09:55:27.979Z,100924.30
2019-05-20T09:57:59.319Z,100921.80
2019-05-20T10:00:30.765Z,100909.25
2019-05-20T10:03:02.359Z,100918.69
2019-05-20T10:05:37.153Z,100924.72
2019-05-20T10:08:07.229Z,100926.17
2019-05-20T10:10:39.446Z,100903.85
2019-05-20T10:13:10.693Z,100886.41
2019-05-20T10:15:42.040Z,100903.67
2019-05-20T10:18:13.249Z,100904.41
2019-05-20T10:20:44.492Z,100909.36
2019-05-20T10:23:16.137Z,100899.78
2019-05-20T10:25:47.620Z,100887.80
2019-05-20T10:28:19.067Z,100907.82
2019-05-20T10:30:50.280Z,100893.53
2019-05-20T10:33:21.902Z,100885.82
2019-05-20T10:35:53.243Z,100890.02
2019-05-20T10:38:24.501Z,100883.63
2019-05-20T10:40:55.869Z,100885.03
2019-05-20T10:43:27.225Z,100879.85
2019-05-20T10:45:58.872Z,100887.02
2019-05-20T10:48:30.188Z,100887.92
2019-05-20T10:51:01.626Z,100886.29
2019-05-20T10:53:32.852Z,100900.32
2019-05-20T10:56:04.151Z,100900.76
2019-05-20T10:58:35.611Z,100896.02
2019-05-20T11:01:06.913Z,100878.20
2019-05-20T11:03:38.161Z,100875.94
2019-05-20T11:06:09.603Z,100870.46
2019-05-20T11:08:40.875Z,100869.81
2019-05-20T11:11:14.341Z,100874.59
2019-05-20T11:13:45.408Z,100888.60
2019-05-20T11:16:17.939Z,100886.33
2019-05-20T11:18:49.299Z,100880.06
2019-05-20T11:21:20.748Z,100872.20
2019-05-20T11:23:52.151Z,100865.84
2019-05-20T11:26:23.593Z,100868.72
2019-05-20T11:28:54.819Z,100873.95
2019-05-20T11:31:26.185Z,100872.50
2019-05-20T11:33:57.772Z,100862.26
2019-05-20T11:36:29.543Z,100865.45
2019-05-20T11:39:01.986Z,100860.70
2019-05-20T11:44:07.797Z,100867.78
2019-05-20T11:46:39.194Z,100859.31
2019-05-20T11:49:10.401Z,100867.25
2019-05-20T11:51:41.756Z,100869.88
2019-05-20T11:54:12.946Z,100867.09
2019-05-20T11:56:44.250Z,100862.59
2019-05-20T11:59:15.449Z,100858.05
2019-05-20T12:01:46.832Z,100855.97
2019-05-20T12:04:18.040Z,100843.64
2019-05-20T12:06:49.254Z,100848.75
2019-05-20T12:09:20.698Z,100840.55
2019-05-20T12:11:52.016Z,100839.95
2019-05-20T12:14:23.522Z,100836.91
2019-05-20T12:16:54.812Z,100845.20
2019-05-20T12:19:26.125Z,100851.43
2019-05-20T12:21:57.590Z,100841.91
2019-05-20T12:24:28.842Z,100839.20
2019-05-20T12:27:00.311Z,100835.62
2019-05-20T12:29:31.609Z,100837.50
2019-05-20T12:32:03.655Z,100829.48
2019-05-20T12:34:35.344Z,100829.30
2019-05-20T12:37:06.791Z,100835.67
2019-05-20T12:39:38.238Z,100827.78
2019-05-20T12:42:09.596Z,100829.39
2019-05-20T12:44:40.842Z,100837.97
2019-05-20T12:47:12.074Z,100826.38
2019-05-20T12:49:43.400Z,100815.28
2019-05-20T12:52:14.739Z,100811.86
2019-05-20T12:54:46.156Z,100852.33
2019-05-20T12:57:17.859Z,100833.71
2019-05-20T12:59:49.352Z,100835.70
2019-05-20T13:02:20.720Z,100849.02
2019-05-20T13:04:53.058Z,100842.70
2019-05-20T13:07:24.433Z,100839.02
2019-05-20T13:09:55.733Z,100834.80
2019-05-20T13:12:26.937Z,100831.64
2019-05-20T13:14:58.227Z,100842.44
2019-05-20T13:17:29.446Z,100844.66
2019-05-20T13:20:01.562Z,100825.31
2019-05-20T13:22:32.928Z,100825.28
2019-05-20T13:25:05.942Z,100833.03
2019-05-20T13:27:37.483Z,100840.59
2019-05-20T13:30:10.120Z,100839.88
2019-05-20T13:32:41.403Z,100831.03
2019-05-20T13:35:13.690Z,100820.92
2019-05-20T13:37:44.916Z,100831.53
2019-05-20T13:40:16.598Z,100821.03
2019-05-20T13:42:48.095Z,100809.48
2019-05-20T13:45:20.613Z,100818.12
2019-05-20T13:47:52.124Z,100831.04
2019-05-20T13:50:23.548Z,100817.64
2019-05-20T13:52:54.893Z,100808.59
2019-05-20T13:55:26.238Z,100812.61
2019-05-20T13:57:57.569Z,100807.09
2019-05-20T14:00:29.967Z,100794.92
2019-05-20T14:03:01.463Z,100796.72
2019-05-20T14:05:32.845Z,100802.97
2019-05-20T14:08:04.334Z,100796.54
2019-05-20T14:10:35.626Z,100801.52
2019-05-20T14:13:07.034Z,100806.67
2019-05-20T14:15:38.598Z,100810.70
2019-05-20T14:18:09.941Z,100801.25
2019-05-20T14:20:41.575Z,100799.43
2019-05-20T14:23:13.090Z,100797.73
2019-05-20T14:25:44.897Z,100804.66
2019-05-20T14:28:16.373Z,100805.63
2019-05-20T14:30:47.927Z,100813.40
2019-05-20T14:33:19.289Z,100796.24
2019-05-20T14:35:50.609Z,100795.11
2019-05-20T14:38:21.979Z,100794.44
2019-05-20T14:40:53.611Z,100805.39
2019-05-20T14:43:25.325Z,100794.78
2019-05-20T14:45:56.785Z,100784.17
2019-05-20T14:48:28.027Z,100792.98
2019-05-20T14:51:01.522Z,100795.01
2019-05-20T14:53:32.857Z,100789.97
2019-05-20T14:56:04.346Z,100782.41
2019-05-20T14:58:35.827Z,100793.92
2019-05-20T15:01:07.088Z,100790.35
2019-05-20T15:03:38.626Z,100778.31
2019-05-20T15:06:11.172Z,100775.33
2019-05-20T15:08:42.570Z,100778.23
2019-05-20T15:11:13.726Z,100783.02
2019-05-20T15:13:45.177Z,100774.08
2019-05-20T15:16:16.881Z,100781.17
2019-05-20T15:18:48.297Z,100770.94
2019-05-20T15:21:20.062Z,100774.02
2019-05-20T15:23:51.793Z,100782.13
2019-05-20T15:26:23.952Z,100766.59
2019-05-20T15:28:55.202Z,100773.13
2019-05-20T15:31:26.905Z,100777.88
2019-05-20T15:33:58.461Z,100766.27
2019-05-20T15:36:29.957Z,100777.77
2019-05-20T15:39:01.580Z,100761.38
2019-05-20T15:41:34.504Z,100769.08
2019-05-20T15:44:05.826Z,100758.11
2019-05-20T15:46:37.198Z,100741.83
2019-05-20T15:49:08.740Z,100754.53
2019-05-20T15:51:40.360Z,100758.36
2019-05-20T15:54:11.676Z,100755.47
2019-05-20T15:56:43.060Z,100760.16
2019-05-20T15:59:14.292Z,100761.00
2019-05-20T16:01:45.655Z,100760.47
2019-05-20T16:04:17.572Z,100760.54
2019-05-20T16:06:49.318Z,100757.98
2019-05-20T16:09:20.657Z,100769.59
2019-05-20T16:11:55.367Z,100756.69
2019-05-20T16:14:26.775Z,100757.48
2019-05-20T16:16:58.113Z,100750.19
2019-05-20T16:19:29.505Z,100745.70
2019-05-20T16:22:01.037Z,100750.67
2019-05-20T16:24:32.449Z,100739.39
2019-05-20T16:27:03.901Z,100754.81
2019-05-20T16:29:35.397Z,100748.83
2019-05-20T16:32:08.705Z,100752.92
2019-05-20T16:34:39.391Z,100760.86
2019-05-20T16:37:10.695Z,100760.52
2019-05-20T16:39:42.384Z,100757.87
2019-05-20T16:42:13.734Z,100753.09
2019-05-20T16:44:45.261Z,100754.61
2019-05-20T16:47:16.739Z,100762.46
2019-05-20T16:49:47.880Z,100761.02
2019-05-20T16:52:20.268Z,100772.61
2019-05-20T16:54:51.771Z,100764.48
2019-05-20T16:57:24.900Z,100759.58
2019-05-20T16:59:56.381Z,100754.17
2019-05-20T17:02:27.840Z,100756.48
2019-05-20T17:04:59.149Z,100755.41
2019-05-20T17:07:30.758Z,100747.66
2019-05-20T17:10:02.063Z,100752.80
2019-05-20T17:12:33.785Z,100746.80
2019-05-20T17:15:05.775Z,100751.69
2019-05-20T17:17:37.149Z,100751.85
2019-05-20T17:20:09.389Z,100752.92
2019-05-20T17:22:40.690Z,100753.80
2019-05-20T17:25:12.076Z,100755.44
2019-05-20T17:27:43.620Z,100754.89
2019-05-20T17:30:15.592Z,100763.80
2019-05-20T17:32:49.925Z,100767.25
2019-05-20T17:35:21.638Z,100773.38
2019-05-20T17:37:55.327Z,100768.17
2019-05-20T17:40:27.131Z,100782.42
2019-05-20T17:42:58.690Z,100781.03
2019-05-20T17:45:30.211Z,100789.05
2019-05-20T17:48:01.706Z,100788.67
2019-05-20T17:50:33.157Z,100786.59
2019-05-20T17:53:06.140Z,100792.19
2019-05-20T17:55:37.746Z,100782.50
2019-05-20T17:58:09.138Z,100788.73
2019-05-20T18:00:40.773Z,100787.27
2019-05-20T18:03:12.418Z,100799.18
2019-05-20T18:05:43.861Z,100802.95
2019-05-20T18:08:15.345Z,100802.57
2019-05-20T18:10:46.618Z,100799.17
2019-05-20T18:13:18.180Z,100798.92
2019-05-20T18:15:49.519Z,100804.35
2019-05-20T18:18:20.950Z,100805.83
2019-05-20T18:20:52.186Z,100810.03
2019-05-20T18:23:23.556Z,100812.42
2019-05-20T18:25:54.871Z,100821.17
2019-05-20T18:28:26.343Z,100818.54
2019-05-20T18:30:57.829Z,100810.84
2019-05-20T18:33:29.036Z,100806.42
2019-05-20T18:36:03.342Z,100808.88
2019-05-20T18:38:44.977Z,100812.39
2019-05-20T18:41:16.404Z,100811.92
2019-05-20T18:43:47.763Z,100820.73
2019-05-20T18:46:19.249Z,100818.77
2019-05-20T18:48:50.511Z,100821.34
2019-05-20T18:51:22.040Z,100822.84
2019-05-20T18:53:53.374Z,100823.07
2019-05-20T18:56:25.074Z,100822.44
2019-05-20T18:58:56.570Z,100815.77
2019-05-20T19:01:27.972Z,100827.58
2019-05-20T19:03:59.381Z,100822.71
2019-05-20T19:06:30.669Z,100823.63
2019-05-20T19:09:01.993Z,100826.31
2019-05-20T19:11:34.650Z,100829.55
2019-05-20T19:14:08.542Z,100836.34
2019-05-20T19:16:39.253Z,100839.17
2019-05-20T19:19:10.783Z,100840.75
2019-05-20T19:21:42.270Z,100843.52
2019-05-20T19:24:13.482Z,100847.28
2019-05-20T19:26:44.638Z,100850.80
2019-05-20T19:29:16.057Z,100848.61
2019-05-20T19:32:00.869Z,100855.11
2019-05-20T19:34:21.429Z,100880.08
2019-05-20T19:36:52.727Z,100865.69
2019-05-20T19:39:23.961Z,100871.00
2019-05-20T19:41:55.445Z,100878.98
2019-05-20T19:44:26.714Z,100882.39
2019-05-20T19:46:58.133Z,100885.89
2019-05-20T19:49:29.570Z,100887.83
2019-05-20T19:52:00.711Z,100892.30
2019-05-20T19:54:32.975Z,100893.38
2019-05-20T19:57:04.253Z,100888.56
2019-05-20T19:59:35.549Z,100893.02
2019-05-20T20:02:16.791Z,100890.91
2019-05-20T20:04:39.833Z,100887.64
2019-05-20T20:07:12.272Z,100889.02
2019-05-20T20:09:43.673Z,100890.72
2019-05-20T20:12:15.153Z,100888.59
2019-05-20T20:14:47.999Z,100884.55
2019-05-20T20:17:19.389Z,100890.48
2019-05-20T20:19:50.828Z,100884.96
2019-05-20T20:22:21.996Z,100888.04
2019-05-20T20:24:53.194Z,100893.78
2019-05-20T20:27:24.392Z,100892.40
2019-05-20T20:29:55.650Z,100891.23
2019-05-20T20:32:37.466Z,100890.70
2019-05-20T20:34:59.737Z,100894.73
2019-05-20T20:37:31.038Z,100889.13
2019-05-20T20:40:02.296Z,100893.26
2019-05-20T20:42:34.985Z,100890.69
2019-05-20T20:45:06.437Z,100895.47
2019-05-20T20:47:41.855Z,100894.63
2019-05-20T20:50:11.209Z,100898.34
2019-05-20T20:52:42.479Z,100892.68
2019-05-20T20:55:15.327Z,100892.27
2019-05-20T20:57:46.601Z,100894.37
2019-05-20T21:00:18.159Z,100893.00
2019-05-20T21:02:53.273Z,100892.17
2019-05-20T21:05:22.330Z,100890.45
2019-05-20T21:07:53.707Z,100900.59
2019-05-20T21:10:25.006Z,100892.73
2019-05-20T21:12:56.129Z,100888.17
2019-05-20T21:15:27.497Z,100882.96
2019-05-20T21:17:58.703Z,100891.73
2019-05-20T21:20:29.947Z,100894.91
2019-05-20T21:23:01.008Z,100897.75
2019-05-20T21:25:32.147Z,100892.34
2019-05-20T21:28:03.348Z,100891.94
2019-05-20T21:30:34.546Z,100885.67
2019-05-20T21:33:09.095Z,100896.59
2019-05-20T21:35:38.825Z,100896.89
2019-05-20T21:38:10.278Z,100897.40
2019-05-20T21:40:41.717Z,100900.16
2019-05-20T21:43:12.932Z,100893.67
2019-05-20T21:45:44.446Z,100895.34
2019-05-20T21:48:17.392Z,100906.61
2019-05-20T21:50:48.660Z,100904.47
2019-05-20T21:53:20.087Z,100904.23
2019-05-20T21:55:51.278Z,100902.13
2019-05-20T21:58:22.512Z,100900.64
2019-05-20T22:00:59.610Z,100896.83
2019-05-20T22:03:31.114Z,100882.95
2019-05-20T22:06:02.585Z,100880.11
2019-05-20T22:08:33.873Z,100879.36
2019-05-20T22:11:05.132Z,100882.66
2019-05-20T22:13:36.467Z,100880.98
2019-05-20T22:16:07.882Z,100891.54
2019-05-20T22:18:39.162Z,100883.54
2019-05-20T22:21:12.196Z,100886.11
2019-05-20T22:23:45.118Z,100890.13
2019-05-20T22:26:16.555Z,100890.45
2019-05-20T22:28:47.785Z,100898.28
2019-05-20T22:31:19.079Z,100899.69
2019-05-20T22:33:50.501Z,100900.64
2019-05-20T22:36:22.196Z,100900.86
2019-05-20T22:38:55.495Z,100893.18
2019-05-20T22:41:26.761Z,100901.52
2019-05-20T22:43:58.079Z,100899.81
2019-05-20T22:46:29.279Z,100898.11
2019-05-20T22:49:00.544Z,100892.82
2019-05-20T22:51:31.737Z,100889.02
2019-05-20T22:54:03.041Z,100898.84
2019-05-20T22:56:34.271Z,100903.18
2019-05-20T22:59:05.540Z,100889.81
2019-05-20T23:01:38.678Z,100890.54
2019-05-20T23:04:09.913Z,100892.45
2019-05-20T23:06:41.201Z,100894.45
2019-05-20T23:09:14.872Z,100900.72
2019-05-20T23:11:45.406Z,100896.55
2019-05-20T23:14:16.608Z,100900.71
2019-05-20T23:16:48.065Z,100897.34
2019-05-20T23:19:19.434Z,100893.50
2019-05-20T23:21:50.660Z,100894.00
2019-05-20T23:24:22.019Z,100909.03
2019-05-20T23:26:53.224Z,100899.75
2019-05-20T23:29:24.590Z,100901.84
2019-05-20T23:31:55.846Z,100896.67
2019-05-20T23:34:27.316Z,100889.67
2019-05-20T23:36:58.430Z,100893.59
2019-05-20T23:39:30.625Z,100892.82
2019-05-20T23:42:06.259Z,100889.30
2019-05-20T23:44:37.691Z,100893.31
2019-05-20T23:47:09.061Z,100891.67
2019-05-20T23:49:40.376Z,100888.81
2019-05-20T23:52:11.855Z,100886.39
2019-05-20T23:54:44.870Z,100881.81
2019-05-20T23:57:16.337Z,100884.17
2019-05-20T23:59:47.545Z,100880.17
